createdAt,value
2018-02-09T00:02:11.435Z,9.35
2018-02-09T00:04:40.489Z,9.20
2018-02-09T00:07:09.457Z,9.13
2018-02-09T00:09:40.452Z,9.08
2018-02-09T00:12:09.919Z,9.04
2018-02-09T00:14:39.356Z,8.94
2018-02-09T00:17:09.433Z,8.79
2018-02-09T00:19:40.143Z,8.79
2018-02-09T00:22:14.637Z,8.72
2018-02-09T00:24:44.108Z,8.62
2018-02-09T00:27:13.402Z,8.68
2018-02-09T00:29:44.110Z,8.47
2018-02-09T00:32:13.476Z,8.13
2018-02-09T00:34:42.680Z,8.04
2018-02-09T00:37:11.886Z,8.10
2018-02-09T00:39:41.870Z,7.98
2018-02-09T00:42:11.627Z,7.99
2018-02-09T00:44:41.109Z,8.01
2018-02-09T00:47:10.110Z,7.88
2018-02-09T00:49:39.314Z,7.78
2018-02-09T00:52:10.017Z,7.68
2018-02-09T00:54:40.424Z,7.72
2018-02-09T00:57:09.513Z,7.80
2018-02-09T00:59:40.973Z,7.73
2018-02-09T01:02:10.577Z,7.69
2018-02-09T01:04:39.581Z,7.57
2018-02-09T01:07:09.693Z,7.53
2018-02-09T01:09:38.788Z,7.57
2018-02-09T01:12:08.334Z,7.59
2018-02-09T01:14:38.319Z,7.63
2018-02-09T01:17:07.308Z,7.74
2018-02-09T01:19:36.378Z,7.68
2018-02-09T01:22:05.497Z,7.71
2018-02-09T01:24:35.121Z,7.73
2018-02-09T01:27:04.106Z,7.66
2018-02-09T01:29:33.951Z,7.71
2018-02-09T01:32:03.111Z,7.72
2018-02-09T01:34:32.076Z,7.69
2018-02-09T01:37:01.192Z,7.44
2018-02-09T01:39:30.301Z,7.25
2018-02-09T01:41:59.802Z,7.15
2018-02-09T01:44:28.899Z,7.12
2018-02-09T01:46:58.796Z,7.05
2018-02-09T01:49:28.012Z,7.09
2018-02-09T01:51:58.823Z,7.06
2018-02-09T01:54:27.775Z,7.02
2018-02-09T01:56:56.736Z,7.00
2018-02-09T01:59:26.554Z,7.00
2018-02-09T02:01:56.056Z,6.98
2018-02-09T02:04:25.129Z,7.02
2018-02-09T02:06:55.005Z,7.06
2018-02-09T02:09:23.959Z,7.01
2018-02-09T02:11:52.890Z,7.13
2018-02-09T02:14:22.969Z,7.19
2018-02-09T02:16:52.168Z,7.13
2018-02-09T02:19:21.224Z,7.09
2018-02-09T02:21:50.564Z,7.07
2018-02-09T02:24:19.638Z,7.10
2018-02-09T02:26:48.652Z,7.11
2018-02-09T02:29:20.108Z,7.10
2018-02-09T02:31:50.009Z,7.13
2018-02-09T02:34:19.122Z,7.14
2018-02-09T02:36:51.587Z,7.18
2018-02-09T02:39:21.409Z,7.19
2018-02-09T02:41:51.222Z,7.16
2018-02-09T02:44:21.083Z,7.21
2018-02-09T02:46:50.232Z,7.24
2018-02-09T02:49:20.441Z,7.07
2018-02-09T02:51:49.447Z,7.04
2018-02-09T02:54:18.750Z,6.96
2018-02-09T02:56:47.845Z,6.79
2018-02-09T02:59:17.707Z,6.76
2018-02-09T03:01:46.855Z,6.84
2018-02-09T03:04:16.878Z,6.81
2018-02-09T03:06:46.058Z,6.87
2018-02-09T03:11:44.304Z,6.83
2018-02-09T03:14:14.491Z,6.77
2018-02-09T03:16:43.483Z,6.73
2018-02-09T03:19:12.475Z,6.67
2018-02-09T03:21:47.200Z,6.69
2018-02-09T03:24:17.240Z,6.76
2018-02-09T03:26:46.416Z,6.74
2018-02-09T03:29:15.445Z,6.70
2018-02-09T03:31:44.625Z,6.57
2018-02-09T03:34:13.605Z,6.63
2018-02-09T03:36:44.655Z,6.64
2018-02-09T03:39:13.638Z,6.47
2018-02-09T03:41:42.719Z,6.33
2018-02-09T03:44:13.441Z,6.36
2018-02-09T03:46:43.110Z,6.45
2018-02-09T03:49:12.173Z,6.51
2018-02-09T03:51:41.379Z,6.50
2018-02-09T03:54:13.647Z,6.52
2018-02-09T03:56:43.597Z,6.49
2018-02-09T03:59:12.577Z,6.44
2018-02-09T04:01:45.972Z,6.39
2018-02-09T04:04:14.963Z,6.21
2018-02-09T04:06:44.062Z,6.20
2018-02-09T04:09:14.116Z,6.29
2018-02-09T04:11:43.127Z,6.30
2018-02-09T04:14:12.167Z,6.31
2018-02-09T04:16:41.162Z,6.29
2018-02-09T04:19:10.156Z,6.24
2018-02-09T04:21:39.357Z,6.18
2018-02-09T04:24:09.405Z,6.17
2018-02-09T04:26:39.193Z,6.20
2018-02-09T04:29:08.081Z,6.13
2018-02-09T04:31:37.311Z,6.15
2018-02-09T04:34:06.272Z,6.17
2018-02-09T04:36:35.467Z,6.18
2018-02-09T04:39:05.452Z,6.23
2018-02-09T04:41:34.316Z,6.18
2018-02-09T04:44:04.294Z,6.16
2018-02-09T04:46:37.690Z,6.16
2018-02-09T04:49:06.721Z,6.19
2018-02-09T04:51:35.925Z,6.21
2018-02-09T04:54:06.620Z,6.15
2018-02-09T04:56:36.435Z,6.18
2018-02-09T04:59:05.424Z,6.15
2018-02-09T05:01:34.419Z,6.21
2018-02-09T05:04:03.448Z,6.25
2018-02-09T05:06:32.520Z,6.24
2018-02-09T05:11:38.077Z,6.09
2018-02-09T05:14:07.247Z,6.02
2018-02-09T05:16:37.903Z,6.06
2018-02-09T05:19:10.479Z,6.09
2018-02-09T05:21:40.551Z,6.09
2018-02-09T05:24:09.868Z,6.12
2018-02-09T05:26:39.713Z,6.16
2018-02-09T05:29:08.792Z,6.17
2018-02-09T05:31:37.906Z,6.22
2018-02-09T05:34:07.152Z,6.31
2018-02-09T05:36:39.791Z,6.23
2018-02-09T05:39:09.703Z,6.33
2018-02-09T05:41:38.586Z,6.29
2018-02-09T05:44:10.047Z,6.52
2018-02-09T05:46:39.408Z,6.72
2018-02-09T05:49:08.466Z,6.87
2018-02-09T05:51:38.425Z,6.93
2018-02-09T05:54:07.480Z,7.29
2018-02-09T05:56:39.035Z,7.32
2018-02-09T05:59:09.360Z,7.54
2018-02-09T06:01:39.151Z,7.77
2018-02-09T06:04:08.306Z,7.50
2018-02-09T06:06:39.086Z,7.41
2018-02-09T06:09:09.738Z,7.42
2018-02-09T06:11:38.605Z,7.52
2018-02-09T06:14:08.685Z,7.57
2018-02-09T06:16:37.639Z,7.62
2018-02-09T06:19:06.530Z,7.63
2018-02-09T06:21:35.625Z,7.58
2018-02-09T06:24:04.560Z,7.61
2018-02-09T06:26:33.484Z,7.65
2018-02-09T06:29:04.138Z,7.67
2018-02-09T06:31:33.240Z,7.59
2018-02-09T06:34:02.273Z,7.40
2018-02-09T06:36:32.760Z,7.47
2018-02-09T06:39:02.062Z,7.50
2018-02-09T06:41:31.877Z,7.51
2018-02-09T06:44:02.588Z,7.59
2018-02-09T06:46:32.323Z,7.70
2018-02-09T06:49:01.296Z,7.73
2018-02-09T06:51:30.314Z,7.77
2018-02-09T06:54:01.137Z,7.78
2018-02-09T06:56:30.446Z,7.79
2018-02-09T06:58:59.543Z,7.72
2018-02-09T07:01:28.640Z,7.63
2018-02-09T07:03:57.660Z,7.57
2018-02-09T07:06:26.673Z,7.56
2018-02-09T07:08:55.690Z,7.42
2018-02-09T07:11:24.822Z,7.44
2018-02-09T07:13:58.198Z,7.40
2018-02-09T07:16:27.209Z,7.48
2018-02-09T07:18:57.381Z,7.50
2018-02-09T07:21:26.376Z,7.53
2018-02-09T07:23:55.424Z,7.54
2018-02-09T07:26:24.316Z,7.67
2018-02-09T07:28:54.764Z,7.81
2018-02-09T07:31:24.456Z,7.84
2018-02-09T07:33:53.646Z,7.98
2018-02-09T07:36:23.500Z,8.05
2018-02-09T07:38:53.380Z,8.15
2018-02-09T07:41:23.194Z,8.20
2018-02-09T07:43:53.340Z,8.26
2018-02-09T07:46:22.307Z,8.34
2018-02-09T07:48:51.707Z,8.40
2018-02-09T07:51:22.334Z,8.47
2018-02-09T07:53:52.809Z,8.45
2018-02-09T07:56:21.797Z,8.39
2018-02-09T07:58:51.779Z,8.47
2018-02-09T08:01:22.397Z,8.54
2018-02-09T08:03:51.404Z,8.64
2018-02-09T08:06:21.203Z,8.66
2018-02-09T08:08:51.882Z,8.72
2018-02-09T08:11:20.983Z,8.83
2018-02-09T08:13:51.536Z,8.88
2018-02-09T08:16:21.258Z,9.00
2018-02-09T08:18:50.288Z,8.99
2018-02-09T08:21:21.941Z,9.00
2018-02-09T08:23:50.936Z,9.05
2018-02-09T08:26:20.887Z,9.09
2018-02-09T08:28:51.790Z,9.21
2018-02-09T08:31:20.992Z,9.22
2018-02-09T08:33:54.436Z,9.25
2018-02-09T08:36:24.300Z,9.29
2018-02-09T08:38:54.761Z,9.32
2018-02-09T08:41:24.136Z,9.38
2018-02-09T08:43:53.205Z,9.49
2018-02-09T08:46:22.221Z,9.58
2018-02-09T08:48:52.017Z,9.67
2018-02-09T08:51:21.131Z,9.78
2018-02-09T08:53:51.053Z,9.74
2018-02-09T08:56:23.723Z,9.85
2018-02-09T08:58:54.496Z,9.95
2018-02-09T09:01:23.458Z,10.15
2018-02-09T09:06:27.593Z,10.33
2018-02-09T09:08:57.493Z,10.34
2018-02-09T09:11:27.379Z,10.36
2018-02-09T09:13:58.053Z,10.36
2018-02-09T09:16:27.763Z,10.39
2018-02-09T09:18:56.792Z,10.29
2018-02-09T09:21:25.749Z,10.19
2018-02-09T09:23:59.250Z,10.16
2018-02-09T09:26:28.244Z,10.07
2018-02-09T09:28:58.057Z,9.95
2018-02-09T09:31:27.974Z,9.87
2018-02-09T09:33:57.249Z,9.73
2018-02-09T09:36:27.087Z,9.64
2018-02-09T09:38:58.579Z,9.55
2018-02-09T09:41:29.286Z,9.57
2018-02-09T09:43:58.266Z,9.56
2018-02-09T09:46:29.052Z,9.56
2018-02-09T09:48:58.028Z,9.63
2018-02-09T09:51:27.987Z,9.72
2018-02-09T09:53:57.315Z,9.81
2018-02-09T09:56:26.317Z,9.79
2018-02-09T09:58:57.862Z,9.96
2018-02-09T10:01:32.895Z,10.11
2018-02-09T10:04:01.825Z,10.24
2018-02-09T10:06:30.757Z,10.25
2018-02-09T10:09:00.635Z,10.29
2018-02-09T10:11:30.538Z,10.39
2018-02-09T10:13:59.402Z,10.46
2018-02-09T10:16:28.842Z,10.53
2018-02-09T10:18:57.935Z,10.55
2018-02-09T10:21:26.932Z,10.54
2018-02-09T10:23:57.940Z,10.58
2018-02-09T10:26:26.939Z,10.49
2018-02-09T10:28:55.963Z,10.66
2018-02-09T10:31:28.501Z,10.77
2018-02-09T10:34:01.208Z,10.84
2018-02-09T10:36:31.099Z,10.81
2018-02-09T10:39:01.710Z,10.81
2018-02-09T10:41:30.869Z,10.79
2018-02-09T10:44:02.559Z,10.88
2018-02-09T10:46:31.530Z,10.83
2018-02-09T10:49:00.575Z,10.87
2018-02-09T10:51:30.640Z,10.90
2018-02-09T10:54:00.303Z,10.83
2018-02-09T10:56:29.401Z,10.94
2018-02-09T10:58:59.898Z,11.02
2018-02-09T11:01:35.475Z,10.99
2018-02-09T11:04:08.868Z,11.03
2018-02-09T11:06:37.899Z,11.04
2018-02-09T11:09:06.901Z,11.02
2018-02-09T11:11:36.099Z,10.98
2018-02-09T11:14:05.077Z,10.95
2018-02-09T11:16:34.251Z,10.98
2018-02-09T11:19:05.128Z,11.01
2018-02-09T11:21:34.083Z,10.95
2018-02-09T11:24:03.194Z,10.98
2018-02-09T11:26:33.094Z,11.00
2018-02-09T11:29:02.187Z,10.93
2018-02-09T11:31:31.186Z,10.97
2018-02-09T11:34:02.028Z,10.92
2018-02-09T11:36:31.119Z,10.90
2018-02-09T11:39:00.251Z,11.01
2018-02-09T11:41:29.495Z,11.15
2018-02-09T11:44:00.352Z,11.16
2018-02-09T11:46:29.335Z,11.24
2018-02-09T11:48:59.566Z,11.25
2018-02-09T11:51:28.699Z,11.24
2018-02-09T11:53:58.105Z,11.25
2018-02-09T11:56:29.726Z,11.30
2018-02-09T11:58:58.827Z,11.31
2018-02-09T12:01:28.531Z,11.35
2018-02-09T12:03:57.669Z,11.33
2018-02-09T12:06:26.723Z,11.44
2018-02-09T12:08:55.719Z,11.57
2018-02-09T12:11:25.368Z,11.45
2018-02-09T12:13:54.468Z,11.51
2018-02-09T12:16:24.413Z,11.61
2018-02-09T12:18:58.653Z,11.64
2018-02-09T12:21:28.576Z,11.65
2018-02-09T12:23:57.670Z,11.64
2018-02-09T12:26:27.484Z,11.65
2018-02-09T12:28:57.398Z,11.72
2018-02-09T12:31:26.431Z,11.64
2018-02-09T12:33:55.526Z,11.69
2018-02-09T12:36:24.512Z,11.68
2018-02-09T12:38:53.433Z,11.64
2018-02-09T12:41:25.334Z,11.62
2018-02-09T12:43:54.738Z,11.50
2018-02-09T12:46:23.761Z,11.43
2018-02-09T12:48:54.164Z,11.52
2018-02-09T12:51:23.263Z,11.55
2018-02-09T12:53:52.244Z,11.54
2018-02-09T12:56:22.831Z,11.47
2018-02-09T12:58:51.912Z,11.52
2018-02-09T13:01:21.832Z,11.47
2018-02-09T13:03:51.028Z,11.51
2018-02-09T13:06:20.907Z,11.51
2018-02-09T13:08:50.626Z,11.53
2018-02-09T13:11:20.474Z,11.50
2018-02-09T13:13:49.980Z,11.38
2018-02-09T13:16:20.804Z,11.46
2018-02-09T13:18:51.775Z,11.44
2018-02-09T13:21:21.735Z,11.37
2018-02-09T13:24:02.733Z,11.41
2018-02-09T13:26:31.755Z,11.37
2018-02-09T13:29:00.947Z,11.34
2018-02-09T13:31:30.899Z,11.30
2018-02-09T13:34:00.065Z,11.30
2018-02-09T13:36:41.101Z,11.29
2018-02-09T13:39:10.084Z,11.31
2018-02-09T13:41:40.243Z,11.31
2018-02-09T13:44:10.594Z,11.27
2018-02-09T13:46:39.743Z,11.21
2018-02-09T13:49:09.075Z,11.19
2018-02-09T13:51:42.736Z,11.21
2018-02-09T13:54:11.947Z,11.22
2018-02-09T13:56:40.962Z,11.20
2018-02-09T13:59:13.403Z,11.22
2018-02-09T14:01:42.484Z,11.15
2018-02-09T14:04:11.954Z,11.09
2018-02-09T14:06:44.787Z,11.09
2018-02-09T14:09:14.906Z,11.05
2018-02-09T14:11:47.225Z,11.02
2018-02-09T14:14:16.378Z,10.94
2018-02-09T14:16:46.393Z,10.98
2018-02-09T14:19:17.248Z,10.78
2018-02-09T14:21:46.478Z,10.82
2018-02-09T14:24:15.454Z,10.80
2018-02-09T14:26:44.700Z,10.83
2018-02-09T14:29:14.702Z,10.79
2018-02-09T14:31:45.442Z,10.71
2018-02-09T14:34:15.910Z,10.71
2018-02-09T14:36:45.112Z,10.64
2018-02-09T14:39:18.807Z,10.67
2018-02-09T14:41:48.959Z,10.71
2018-02-09T14:44:19.050Z,10.72
2018-02-09T14:46:49.118Z,10.66
2018-02-09T14:49:18.311Z,10.61
2018-02-09T14:51:48.091Z,10.51
2018-02-09T14:54:18.986Z,10.43
2018-02-09T14:56:48.659Z,10.38
2018-02-09T14:59:17.716Z,10.38
2018-02-09T15:01:51.012Z,10.30
2018-02-09T15:04:20.255Z,10.20
2018-02-09T15:06:57.401Z,10.15
2018-02-09T15:09:27.465Z,10.17
2018-02-09T15:11:56.575Z,10.07
2018-02-09T15:14:28.557Z,10.02
2018-02-09T15:16:59.302Z,10.00
2018-02-09T15:19:28.408Z,9.89
2018-02-09T15:21:59.127Z,9.78
2018-02-09T15:24:28.245Z,9.65
2018-02-09T15:26:57.590Z,9.66
2018-02-09T15:29:26.957Z,9.58
2018-02-09T15:31:56.963Z,9.50
2018-02-09T15:34:27.286Z,9.44
2018-02-09T15:37:02.933Z,9.41
2018-02-09T15:39:32.854Z,9.36
2018-02-09T15:42:02.048Z,9.34
2018-02-09T15:44:31.406Z,9.34
2018-02-09T15:47:00.451Z,9.27
2018-02-09T15:49:30.284Z,9.25
2018-02-09T15:52:00.678Z,9.22
2018-02-09T15:54:29.937Z,9.10
2018-02-09T15:56:59.158Z,9.02
2018-02-09T15:59:29.584Z,8.96
2018-02-09T16:01:58.982Z,8.91
2018-02-09T16:04:28.451Z,8.86
2018-02-09T16:06:59.390Z,8.81
2018-02-09T16:09:29.590Z,8.64
2018-02-09T16:11:58.622Z,8.57
2018-02-09T16:14:29.386Z,8.59
2018-02-09T16:16:58.641Z,8.58
2018-02-09T16:19:27.937Z,8.62
2018-02-09T16:21:58.925Z,8.59
2018-02-09T16:24:28.057Z,8.49
2018-02-09T16:26:58.197Z,8.40
2018-02-09T16:29:27.374Z,8.32
2018-02-09T16:31:56.598Z,8.36
2018-02-09T16:34:25.676Z,8.38
2018-02-09T16:36:55.522Z,8.31
2018-02-09T16:39:24.823Z,8.30
2018-02-09T16:41:54.039Z,8.22
2018-02-09T16:44:23.243Z,8.22
2018-02-09T16:46:52.660Z,8.16
2018-02-09T16:49:21.807Z,8.12
2018-02-09T16:51:52.729Z,8.07
2018-02-09T16:54:22.107Z,7.93
2018-02-09T16:56:51.428Z,7.89
2018-02-09T16:59:23.047Z,7.86
2018-02-09T17:01:53.558Z,7.76
2018-02-09T17:04:22.882Z,7.72
2018-02-09T17:06:52.393Z,7.64
2018-02-09T17:09:21.888Z,7.52
2018-02-09T17:11:52.072Z,7.40
2018-02-09T17:14:23.055Z,7.43
2018-02-09T17:16:53.157Z,7.37
2018-02-09T17:19:22.834Z,7.25
2018-02-09T17:21:52.311Z,7.17
2018-02-09T17:24:21.828Z,7.18
2018-02-09T17:26:51.231Z,7.03
2018-02-09T17:29:21.470Z,6.89
2018-02-09T17:31:50.862Z,6.86
2018-02-09T17:34:21.023Z,6.83
2018-02-09T17:36:52.881Z,6.78
2018-02-09T17:39:22.629Z,6.73
2018-02-09T17:41:53.060Z,6.68
2018-02-09T17:44:26.517Z,6.70
2018-02-09T17:46:55.678Z,6.62
2018-02-09T17:49:24.671Z,6.57
2018-02-09T17:51:53.875Z,6.57
2018-02-09T17:54:23.820Z,6.56
2018-02-09T17:56:53.294Z,6.46
2018-02-09T17:59:24.372Z,6.35
2018-02-09T18:01:53.697Z,6.39
2018-02-09T18:04:22.943Z,6.25
2018-02-09T18:06:52.298Z,6.12
2018-02-09T18:09:21.723Z,6.11
2018-02-09T18:11:52.535Z,6.08
2018-02-09T18:14:22.784Z,6.01
2018-02-09T18:16:52.310Z,5.93
2018-02-09T18:19:21.618Z,5.95
2018-02-09T18:21:50.710Z,6.01
2018-02-09T18:24:20.143Z,6.02
2018-02-09T18:26:49.348Z,6.10
2018-02-09T18:29:19.226Z,6.13
2018-02-09T18:31:48.729Z,6.06
2018-02-09T18:34:21.534Z,6.06
2018-02-09T18:36:50.711Z,6.02
2018-02-09T18:39:19.959Z,6.06
2018-02-09T18:41:49.810Z,6.04
2018-02-09T18:44:20.282Z,5.97
2018-02-09T18:46:51.777Z,5.95
2018-02-09T18:49:22.653Z,5.84
2018-02-09T18:51:53.242Z,5.82
2018-02-09T18:54:24.273Z,5.89
2018-02-09T18:56:54.278Z,5.95
2018-02-09T18:59:23.988Z,5.98
2018-02-09T19:01:54.413Z,6.02
2018-02-09T19:04:23.983Z,6.02
2018-02-09T19:06:53.349Z,6.03
2018-02-09T19:09:22.561Z,6.00
2018-02-09T19:11:51.896Z,5.98
2018-02-09T19:14:22.927Z,5.96
2018-02-09T19:16:53.125Z,5.90
2018-02-09T19:19:22.314Z,5.88
2018-02-09T19:21:51.704Z,5.87
2018-02-09T19:24:21.156Z,5.85
2018-02-09T19:26:50.738Z,5.76
2018-02-09T19:29:21.584Z,5.69
2018-02-09T19:31:51.003Z,5.49
2018-02-09T19:34:20.168Z,5.29
2018-02-09T19:36:49.149Z,5.15
2018-02-09T19:39:18.114Z,5.14
2018-02-09T19:41:47.028Z,5.24
2018-02-09T19:44:19.428Z,5.33
2018-02-09T19:46:48.398Z,5.40
2018-02-09T19:49:17.479Z,5.39
2018-02-09T19:51:47.313Z,5.44
2018-02-09T19:54:16.434Z,5.48
2018-02-09T19:56:45.459Z,5.47
2018-02-09T19:59:16.216Z,5.41
2018-02-09T20:01:45.245Z,5.43
2018-02-09T20:04:14.296Z,5.45
2018-02-09T20:06:46.676Z,5.50
2018-02-09T20:09:15.858Z,5.47
2018-02-09T20:11:45.158Z,5.44
2018-02-09T20:14:14.292Z,5.44
2018-02-09T20:16:43.643Z,5.47
2018-02-09T20:19:12.926Z,5.51
2018-02-09T20:21:44.291Z,5.55
2018-02-09T20:24:13.436Z,5.49
2018-02-09T20:26:43.205Z,5.56
2018-02-09T20:29:12.516Z,5.57
2018-02-09T20:31:41.654Z,5.59
2018-02-09T20:34:10.732Z,5.46
2018-02-09T20:36:39.995Z,5.44
2018-02-09T20:39:09.950Z,5.44
2018-02-09T20:41:39.059Z,5.43
2018-02-09T20:46:43.500Z,5.46
2018-02-09T20:49:12.401Z,5.47
2018-02-09T20:51:41.414Z,5.44
2018-02-09T20:54:11.923Z,5.43
2018-02-09T20:56:42.956Z,5.40
2018-02-09T20:59:12.708Z,5.38
2018-02-09T21:01:42.256Z,5.38
2018-02-09T21:04:13.070Z,5.43
2018-02-09T21:06:42.635Z,5.47
2018-02-09T21:09:13.053Z,5.47
2018-02-09T21:11:42.676Z,5.51
2018-02-09T21:14:12.321Z,5.50
2018-02-09T21:16:41.941Z,5.56
2018-02-09T21:19:13.932Z,5.55
2018-02-09T21:21:43.193Z,5.53
2018-02-09T21:24:13.426Z,5.49
2018-02-09T21:26:43.950Z,5.47
2018-02-09T21:29:13.409Z,5.49
2018-02-09T21:31:42.853Z,5.40
2018-02-09T21:34:12.044Z,5.38
2018-02-09T21:36:41.626Z,5.42
2018-02-09T21:39:11.304Z,5.39
2018-02-09T21:41:41.437Z,5.34
2018-02-09T21:44:10.699Z,5.32
2018-02-09T21:46:40.065Z,5.32
2018-02-09T21:49:11.979Z,5.33
2018-02-09T21:51:41.724Z,5.32
2018-02-09T21:54:11.831Z,5.30
2018-02-09T21:56:42.417Z,5.27
2018-02-09T21:59:12.003Z,5.28
2018-02-09T22:01:41.541Z,5.18
2018-02-09T22:04:11.233Z,5.08
2018-02-09T22:06:40.800Z,5.09
2018-02-09T22:09:10.546Z,5.09
2018-02-09T22:11:39.909Z,5.10
2018-02-09T22:14:09.142Z,5.02
2018-02-09T22:16:38.320Z,5.02
2018-02-09T22:19:08.786Z,5.01
2018-02-09T22:21:38.068Z,4.96
2018-02-09T22:24:07.087Z,4.96
2018-02-09T22:26:36.120Z,4.86
2018-02-09T22:29:05.078Z,4.85
2018-02-09T22:31:34.088Z,4.84
2018-02-09T22:34:03.124Z,4.83
2018-02-09T22:36:32.126Z,4.83
2018-02-09T22:39:01.157Z,4.77
2018-02-09T22:41:31.087Z,4.76
2018-02-09T22:44:00.198Z,4.77
2018-02-09T22:46:29.212Z,4.83
2018-02-09T22:48:59.872Z,4.89
2018-02-09T22:51:28.981Z,4.90
2018-02-09T22:53:58.398Z,4.81
2018-02-09T22:56:28.322Z,4.79
2018-02-09T22:58:57.560Z,4.75
2018-02-09T23:01:26.698Z,4.75
2018-02-09T23:03:55.810Z,4.71
2018-02-09T23:06:25.177Z,4.69
2018-02-09T23:08:54.740Z,4.67
2018-02-09T23:11:25.400Z,4.61
2018-02-09T23:13:55.648Z,4.56
2018-02-09T23:16:24.945Z,4.63
2018-02-09T23:18:54.529Z,4.67
2018-02-09T23:21:23.724Z,4.73
2018-02-09T23:23:52.763Z,4.74
2018-02-09T23:26:24.008Z,4.70
2018-02-09T23:28:54.126Z,4.71
2018-02-09T23:31:24.310Z,4.68
2018-02-09T23:33:54.306Z,4.68
2018-02-09T23:36:24.375Z,4.63
2018-02-09T23:38:53.973Z,4.58
2018-02-09T23:41:24.357Z,4.60
2018-02-09T23:43:53.506Z,4.60
2018-02-09T23:46:22.777Z,4.63
2018-02-09T23:48:54.335Z,4.60
2018-02-09T23:51:24.405Z,4.55
2018-02-09T23:53:53.647Z,4.59
2018-02-09T23:56:23.994Z,4.62
2018-02-09T23:58:54.180Z,4.62
